Time;durP1;ratioP1;P1;durP2;ratioP2;P2;SDS_P1;SDS_P2;PMS_P1;PMS_P2;Temp;Humidity;BMP_temperature;BMP_pressure;BME280_temperature;BME280_humidity;BME280_pressure;Samples;Min_cycle;Max_cycle;Signal;HPM_P1;HPM_P2
2022/09/16 00:00:42;;;;;;;7.57;1.67;;;11.40;99.90;;;;;;10590316;28;20233;-83
2022/09/16 00:06:04;;;;;;;6.50;1.77;;;11.40;99.90;;;;;;10582155;28;20237;-83
2022/09/16 00:11:25;;;;;;;4.43;1.67;;;11.40;99.90;;;;;;10578812;28;20198;-83
2022/09/16 00:16:46;;;;;;;4.40;1.40;;;11.40;1.00;;;;;;10548885;28;20184;-84
2022/09/16 00:22:08;;;;;;;5.83;1.63;;;11.30;1.00;;;;;;10556547;28;20224;-83
2022/09/16 00:27:29;;;;;;;7.27;1.50;;;11.30;1.00;;;;;;10559644;28;20274;-83
2022/09/16 00:32:51;;;;;;;9.30;1.90;;;11.30;1.00;;;;;;10574647;28;20305;-84
2022/09/16 00:38:13;;;;;;;8.87;2.13;;;11.30;1.00;;;;;;10560395;28;20240;-84
2022/09/16 00:43:53;;;;;;;4.50;1.57;;;11.20;1.00;;;;;;10560049;28;20218;-84
2022/09/16 00:49:26;;;;;;;8.53;1.60;;;11.20;1.00;;;;;;10588330;28;20356;-84
2022/09/16 00:54:47;;;;;;;9.13;1.60;;;11.10;1.00;;;;;;10576975;28;20202;-83
2022/09/16 01:00:12;;;;;;;7.13;1.73;;;11.10;1.00;;;;;;10561490;28;20235;-85
2022/09/16 01:05:34;;;;;;;4.87;1.23;;;11.10;1.00;;;;;;10573687;28;20199;-84
2022/09/16 01:10:56;;;;;;;6.67;2.00;;;11.00;1.00;;;;;;10573271;28;20215;-84
2022/09/16 01:16:39;;;;;;;5.83;1.87;;;11.00;1.00;;;;;;10530840;28;20271;-84
2022/09/16 01:22:32;;;;;;;10.27;1.93;;;11.00;1.00;;;;;;10544905;28;20281;-84
2022/09/16 01:28:11;;;;;;;8.83;1.60;;;10.90;1.00;;;;;;10588862;28;20196;-84
2022/09/16 01:33:57;;;;;;;9.50;1.87;;;10.90;1.00;;;;;;10512339;28;20238;-84
2022/09/16 01:39:38;;;;;;;6.53;1.77;;;10.90;1.00;;;;;;10505585;28;20197;-84
2022/09/16 01:45:11;;;;;;;9.63;1.63;;;10.80;1.00;;;;;;10519077;28;20356;-84
2022/09/16 01:50:40;;;;;;;5.17;1.50;;;10.80;1.00;;;;;;10478582;28;20240;-85
2022/09/16 01:56:13;;;;;;;9.90;1.93;;;10.80;1.00;;;;;;10477750;28;20197;-84
2022/09/16 02:01:53;;;;;;;7.63;1.43;;;10.80;1.00;;;;;;10477316;28;20463;-84
2022/09/16 02:07:19;;;;;;;10.77;5.07;;;10.80;1.00;;;;;;10463339;28;20201;-83
2022/09/16 02:12:44;;;;;;;11.33;2.30;;;10.70;1.00;;;;;;10482115;28;20192;-84
2022/09/16 02:18:12;;;;;;;7.17;1.43;;;10.70;1.00;;;;;;10504241;28;20190;-84
2022/09/16 02:23:44;;;;;;;11.70;2.37;;;10.70;1.00;;;;;;10504289;28;20265;-83
2022/09/16 02:29:14;;;;;;;7.93;2.10;;;10.60;1.00;;;;;;10490234;28;20223;-84
2022/09/16 02:34:43;;;;;;;4.10;1.70;;;10.60;1.00;;;;;;10519137;28;20202;-83
2022/09/16 02:40:11;;;;;;;4.93;1.87;;;10.60;1.00;;;;;;10530818;28;20194;-83
2022/09/16 02:45:56;;;;;;;11.00;1.63;;;10.60;1.00;;;;;;10514078;28;20391;-84
2022/09/16 02:51:42;;;;;;;7.97;2.73;;;10.60;1.00;;;;;;10511950;28;20277;-84
2022/09/16 02:57:03;;;;;;;7.07;1.93;;;10.60;1.00;;;;;;10511528;28;20275;-84
2022/09/16 03:02:25;;;;;;;5.57;1.77;;;10.60;1.00;;;;;;10511188;28;20477;-83
2022/09/16 03:07:46;;;;;;;7.00;1.67;;;10.50;1.00;;;;;;10511475;28;20386;-83
2022/09/16 03:13:21;;;;;;;6.70;1.50;;;10.50;1.00;;;;;;10510607;28;20221;-83
2022/09/16 03:18:57;;;;;;;10.70;1.97;;;10.40;1.00;;;;;;10507761;28;20206;-84
2022/09/16 03:24:52;;;;;;;9.27;1.87;;;10.50;1.00;;;;;;10493442;28;20233;-83
2022/09/16 03:30:14;;;;;;;5.97;1.77;;;10.50;1.00;;;;;;10523548;28;20243;-83
2022/09/16 03:35:46;;;;;;;7.67;2.07;;;10.40;1.00;;;;;;10577191;28;20216;-83
2022/09/16 03:41:09;;;;;;;6.27;1.37;;;10.40;1.00;;;;;;10576682;28;20224;-83
2022/09/16 03:46:31;;;;;;;9.50;1.77;;;10.30;1.00;;;;;;10579361;28;20268;-84
2022/09/16 03:51:52;;;;;;;15.30;2.43;;;10.30;1.00;;;;;;10575646;28;20487;-83
2022/09/16 03:57:13;;;;;;;11.00;1.77;;;10.30;1.00;;;;;;10576118;28;20221;-84
2022/09/16 04:02:34;;;;;;;11.90;2.00;;;10.30;1.00;;;;;;10561880;28;20218;-84
2022/09/16 04:07:56;;;;;;;5.80;1.50;;;10.20;1.00;;;;;;10561944;28;20207;-83
2022/09/16 04:13:17;;;;;;;6.60;1.83;;;10.30;1.00;;;;;;10574891;28;20195;-83
2022/09/16 04:18:38;;;;;;;5.43;1.60;;;10.20;1.00;;;;;;10575395;28;20384;-85
2022/09/16 04:24:00;;;;;;;9.03;2.10;;;10.20;1.00;;;;;;10592298;28;20247;-83
2022/09/16 04:29:21;;;;;;;8.57;1.70;;;10.20;1.00;;;;;;10574374;28;20200;-83
2022/09/16 04:34:42;;;;;;;7.50;1.50;;;10.10;1.00;;;;;;10560928;28;20188;-83
2022/09/16 04:40:04;;;;;;;10.23;2.20;;;10.20;1.00;;;;;;10574668;28;20196;-84
2022/09/16 04:45:26;;;;;;;7.60;1.90;;;10.10;1.00;;;;;;10591342;28;20198;-84
2022/09/16 04:50:47;;;;;;;7.40;1.90;;;10.20;1.00;;;;;;10574477;28;20283;-83
2022/09/16 04:56:30;;;;;;;7.67;1.90;;;10.20;1.00;;;;;;10573986;28;20217;-83
2022/09/16 05:01:51;;;;;;;11.03;2.37;;;10.20;1.00;;;;;;10587700;28;20228;-84
2022/09/16 05:07:13;;;;;;;6.57;1.63;;;10.20;1.00;;;;;;10574296;28;20559;-85
2022/09/16 05:12:34;;;;;;;11.57;2.10;;;10.30;1.00;;;;;;10573125;28;20196;-85
2022/09/16 05:17:56;;;;;;;9.90;1.93;;;10.40;1.00;;;;;;10587529;28;20562;-84
2022/09/16 05:23:17;;;;;;;9.73;2.30;;;10.50;1.00;;;;;;10559043;28;20222;-83
2022/09/16 05:28:39;;;;;;;8.10;2.10;;;10.50;1.00;;;;;;10525394;28;20406;-84
2022/09/16 05:34:02;;;;;;;7.57;1.43;;;10.60;1.00;;;;;;10558194;28;20523;-84
2022/09/16 05:39:23;;;;;;;8.43;1.70;;;10.70;1.00;;;;;;10558369;28;20204;-84
2022/09/16 05:44:45;;;;;;;6.03;1.30;;;10.80;1.00;;;;;;10588924;28;20510;-84
2022/09/16 05:50:07;;;;;;;12.47;3.07;;;10.90;1.00;;;;;;10589544;28;20208;-84
2022/09/16 05:55:28;;;;;;;11.60;2.33;;;10.90;1.00;;;;;;10559377;28;20198;-84
2022/09/16 06:00:49;;;;;;;11.80;2.60;;;11.10;99.90;;;;;;10562225;28;20212;-84
2022/09/16 06:06:18;;;;;;;11.80;1.90;;;11.30;99.90;;;;;;10574853;28;20186;-84
2022/09/16 06:11:42;;;;;;;10.63;1.93;;;11.60;99.90;;;;;;10544774;28;20215;-85
2022/09/16 06:17:04;;;;;;;5.90;1.63;;;11.80;99.90;;;;;;10552587;28;20206;-84
2022/09/16 06:22:28;;;;;;;8.93;1.80;;;11.90;1.00;;;;;;10539628;28;20222;-86
2022/09/16 06:27:50;;;;;;;6.47;1.77;;;12.00;1.00;;;;;;10573396;28;20226;-86
2022/09/16 06:33:11;;;;;;;15.17;2.37;;;12.20;1.00;;;;;;10550166;28;20582;-86
2022/09/16 06:38:33;;;;;;;11.50;1.70;;;12.30;1.00;;;;;;10600859;28;20208;-85
2022/09/16 06:43:54;;;;;;;6.97;1.97;;;12.50;1.00;;;;;;10622094;28;20214;-86
2022/09/16 06:49:15;;;;;;;11.23;2.30;;;13.30;99.90;;;;;;10598787;28;20204;-86
2022/09/16 06:54:37;;;;;;;9.33;2.47;;;13.50;1.00;;;;;;10596008;28;20488;-85
2022/09/16 06:59:59;;;;;;;9.77;2.17;;;13.30;1.00;;;;;;10565132;28;20453;-86
2022/09/16 07:05:20;;;;;;;7.07;1.97;;;13.30;1.00;;;;;;10536645;28;20391;-85
2022/09/16 07:10:41;;;;;;;10.83;2.30;;;13.40;99.90;;;;;;10544510;28;20334;-85
2022/09/16 07:16:06;;;;;;;7.23;1.60;;;13.70;99.90;;;;;;10565247;28;20268;-85
2022/09/16 07:21:34;;;;;;;8.23;2.33;;;14.30;1.00;;;;;;10495334;28;20234;-83
2022/09/16 07:26:56;;;;;;;8.82;1.90;;;14.80;99.90;;;;;;10538916;28;20377;-83
2022/09/16 07:32:17;;;;;;;5.60;1.85;;;16.30;99.90;;;;;;10548517;28;20253;-86
2022/09/16 07:37:39;;;;;;;8.73;1.75;;;17.70;1.00;;;;;;10528385;28;20211;-83
2022/09/16 07:43:02;;;;;;;13.55;1.88;;;19.00;99.90;;;;;;10519007;28;20225;-81
2022/09/16 07:48:25;;;;;;;6.55;1.73;;;18.10;1.00;;;;;;10504527;28;20217;-80
2022/09/16 07:53:47;;;;;;;8.30;2.17;;;16.70;1.00;;;;;;10503760;28;20219;-81
2022/09/16 07:59:15;;;;;;;9.13;1.87;;;15.70;1.00;;;;;;10503789;28;20205;-80
2022/09/16 08:04:37;;;;;;;8.83;1.90;;;15.20;1.00;;;;;;10543159;28;20265;-80
2022/09/16 08:09:58;;;;;;;7.00;2.00;;;14.70;1.00;;;;;;10560084;28;20199;-80
2022/09/16 08:15:20;;;;;;;5.30;1.83;;;14.70;76.80;;;;;;10543467;28;20192;-81
2022/09/16 08:20:41;;;;;;;6.75;1.67;;;15.00;21.80;;;;;;10531104;28;20264;-80
2022/09/16 08:26:03;;;;;;;8.70;1.55;;;15.40;1.00;;;;;;10521023;28;20246;-81
2022/09/16 08:31:24;;;;;;;10.80;1.88;;;16.00;1.00;;;;;;10528349;28;20237;-81
2022/09/16 08:36:46;;;;;;;4.03;1.27;;;16.00;99.90;;;;;;10557992;28;20395;-80
2022/09/16 08:42:29;;;;;;;6.87;1.47;;;15.60;1.00;;;;;;10543589;28;20412;-81
2022/09/16 08:48:07;;;;;;;7.03;1.73;;;15.50;1.00;;;;;;10543756;28;20279;-79
2022/09/16 08:53:40;;;;;;;3.53;1.63;;;15.70;1.00;;;;;;10496412;28;20199;-79
2022/09/16 08:59:09;;;;;;;13.23;1.73;;;15.40;1.00;;;;;;10501759;28;20206;-80
2022/09/16 09:04:30;;;;;;;7.47;1.47;;;15.00;1.00;;;;;;10549722;28;20217;-81
2022/09/16 09:10:04;;;;;;;65.67;4.43;;;14.80;1.00;;;;;;10544631;28;20211;-82
2022/09/16 09:15:55;;;;;;;7.07;1.83;;;14.80;1.00;;;;;;10545059;28;20472;-81
2022/09/16 09:21:30;;;;;;;8.70;1.73;;;15.20;1.00;;;;;;10538678;28;20231;-83
2022/09/16 09:26:58;;;;;;;40.87;3.07;;;15.80;99.90;;;;;;10557184;28;20210;-83
2022/09/16 09:32:39;;;;;;;14.07;1.92;;;16.00;99.90;;;;;;10556415;28;20283;-87
2022/09/16 09:38:14;;;;;;;11.80;2.40;;;15.90;82.30;;;;;;10557135;28;20413;-85
2022/09/16 09:43:48;;;;;;;22.08;4.35;;;15.70;81.10;;;;;;10555648;28;20559;-80
2022/09/16 09:49:19;;;;;;;4.45;1.15;;;15.90;1.00;;;;;;10539979;28;20209;-81
2022/09/16 09:54:49;;;;;;;14.35;2.20;;;16.00;1.00;;;;;;10548469;28;20447;-81
2022/09/16 10:00:15;;;;;;;13.88;2.03;;;15.80;1.00;;;;;;10542335;28;20201;-91
2022/09/16 10:05:37;;;;;;;5.47;1.40;;;15.60;1.00;;;;;;10554872;28;20268;-82
2022/09/16 10:11:01;;;;;;;18.20;1.98;;;15.60;1.00;;;;;;10556019;28;20484;-77
2022/09/16 10:16:35;;;;;;;8.95;2.17;;;16.00;1.00;;;;;;10540476;28;20243;-85
2022/09/16 10:22:25;;;;;;;11.05;1.40;;;16.00;1.00;;;;;;10542172;28;20261;-78
2022/09/16 10:27:57;;;;;;;4.00;1.30;;;15.80;1.00;;;;;;10525114;28;20274;-78
2022/09/16 10:33:26;;;;;;;4.63;1.35;;;15.60;1.00;;;;;;10515739;28;20243;-76
2022/09/16 10:38:56;;;;;;;5.60;2.47;;;15.40;99.90;;;;;;10511194;28;20259;-77
2022/09/16 10:44:27;;;;;;;14.57;1.50;;;15.40;99.90;;;;;;10512845;28;20234;-78
2022/09/16 10:49:52;;;;;;;5.80;1.40;;;15.50;99.90;;;;;;10514555;28;20386;-78
2022/09/16 10:55:24;;;;;;;3.63;1.37;;;15.30;99.90;;;;;;10523686;28;20281;-80
2022/09/16 11:01:23;;;;;;;5.33;1.43;;;15.20;99.90;;;;;;10526771;28;20798;-83
2022/09/16 11:07:00;;;;;;;4.32;1.35;;;15.10;99.90;;;;;;10533685;28;20190;-80
2022/09/16 11:12:43;;;;;;;7.40;1.50;;;14.80;1.00;;;;;;10549578;28;20199;-83
2022/09/16 11:18:42;;;;;;;4.63;1.53;;;14.80;1.00;;;;;;10551065;28;20386;-79
2022/09/16 11:24:18;;;;;;;4.67;1.20;;;14.90;1.00;;;;;;10560300;28;20225;-80
2022/09/16 11:29:52;;;;;;;5.37;1.17;;;14.70;13.00;;;;;;10569179;28;20216;-84
2022/09/16 11:35:38;;;;;;;3.60;1.77;;;15.00;1.00;;;;;;10569069;28;20205;-80
2022/09/16 11:41:03;;;;;;;5.15;1.75;;;16.20;99.90;;;;;;10548899;28;20201;-81
2022/09/16 11:47:01;;;;;;;5.18;1.48;;;16.50;99.90;;;;;;10504481;28;20424;-81
2022/09/16 11:53:00;;;;;;;7.80;2.10;;;17.00;1.00;;;;;;10540774;28;20218;-78
2022/09/16 11:58:54;;;;;;;6.32;1.20;;;18.10;56.90;;;;;;10504207;28;20207;-79
2022/09/16 12:04:32;;;;;;;2.72;0.80;;;17.40;1.00;;;;;;10559439;28;20230;-78
2022/09/16 12:10:21;;;;;;;6.30;1.55;;;16.70;85.90;;;;;;10558399;28;20197;-79
2022/09/16 12:15:50;;;;;;;7.20;2.80;;;16.00;99.90;;;;;;10558058;28;20201;-78
2022/09/16 12:21:15;;;;;;;4.43;1.27;;;15.80;1.00;;;;;;10549840;28;20209;-79
2022/09/16 12:26:46;;;;;;;3.60;0.83;;;15.60;1.00;;;;;;10523834;28;20354;-80
2022/09/16 12:32:14;;;;;;;2.85;1.30;;;15.50;1.00;;;;;;10504013;28;20241;-80
2022/09/16 12:37:43;;;;;;;1.57;0.77;;;15.40;1.00;;;;;;10515999;28;20276;-80
2022/09/16 12:43:36;;;;;;;7.50;2.03;;;15.50;1.00;;;;;;10554992;28;20229;-78
2022/09/16 12:49:48;;;;;;;5.78;2.30;;;16.50;1.00;;;;;;10558404;28;20362;-78
2022/09/16 12:55:43;;;;;;;2.53;1.13;;;17.90;99.90;;;;;;10512554;28;20212;-81
2022/09/16 13:01:36;;;;;;;4.10;1.35;;;19.00;1.00;;;;;;10483466;28;20578;-80
2022/09/16 13:06:58;;;;;;;2.70;0.90;;;19.50;1.00;;;;;;10506552;28;20295;-78
2022/09/16 13:12:26;;;;;;;4.82;1.25;;;18.40;99.90;;;;;;10492350;28;20202;-80
2022/09/16 13:18:13;;;;;;;7.63;3.95;;;18.10;1.00;;;;;;10439334;28;20459;-81
2022/09/16 13:23:42;;;;;;;3.72;1.20;;;18.60;99.90;;;;;;10456185;28;20240;-80
2022/09/16 13:29:38;;;;;;;3.50;1.00;;;19.00;99.90;;;;;;10507426;28;20219;-82
2022/09/16 13:35:19;;;;;;;4.63;2.08;;;18.80;99.90;;;;;;10525524;28;20200;-80
2022/09/16 13:40:58;;;;;;;15.93;7.05;;;18.30;99.90;;;;;;10549510;28;20220;-78
2022/09/16 13:46:28;;;;;;;5.70;0.80;;;18.40;99.90;;;;;;10559585;28;20224;-80
2022/09/16 13:51:51;;;;;;;10.05;1.48;;;18.20;99.90;;;;;;10513004;28;20227;-81
2022/09/16 13:57:39;;;;;;;1.95;0.93;;;18.00;99.90;;;;;;10567382;28;20188;-79
2022/09/16 14:03:44;;;;;;;4.53;0.88;;;17.50;99.90;;;;;;10527624;28;20231;-80
2022/09/16 14:09:35;;;;;;;6.05;1.17;;;17.20;99.90;;;;;;10516808;28;20203;-79
2022/09/16 14:14:58;;;;;;;5.13;1.23;;;17.00;99.90;;;;;;10530357;28;20243;-81
2022/09/16 14:20:23;;;;;;;6.68;1.30;;;16.70;99.90;;;;;;10541582;28;20218;-80
2022/09/16 14:25:44;;;;;;;4.47;0.90;;;16.40;99.90;;;;;;10529259;28;20217;-81
2022/09/16 14:31:28;;;;;;;9.68;1.15;;;16.10;99.90;;;;;;10531254;28;20235;-80
2022/09/16 14:36:49;;;;;;;8.67;2.70;;;15.90;99.90;;;;;;10531329;28;20190;-79
2022/09/16 14:42:18;;;;;;;6.97;1.70;;;15.70;1.00;;;;;;10522317;28;20236;-80
2022/09/16 14:47:39;;;;;;;8.43;1.33;;;15.50;1.00;;;;;;10543377;28;20260;-83
2022/09/16 14:53:39;;;;;;;7.53;1.13;;;15.40;1.00;;;;;;10538692;28;20534;-80
2022/09/16 14:59:04;;;;;;;3.60;1.10;;;;;;;;;;10530330;28;20201;-79
2022/09/16 15:04:31;;;;;;;1.97;0.67;;;14.70;99.90;;;;;;10535401;28;20223;-85
2022/09/16 15:10:05;;;;;;;1.57;0.70;;;14.30;1.00;;;;;;10566964;28;20187;-81
2022/09/16 15:15:33;;;;;;;3.03;1.10;;;14.10;1.00;;;;;;10550460;28;20196;-81
2022/09/16 15:21:02;;;;;;;3.50;1.93;;;13.80;1.00;;;;;;10548893;28;20521;-84
2022/09/16 15:26:29;;;;;;;3.00;1.87;;;13.60;87.20;;;;;;10564593;28;20290;-80
2022/09/16 15:31:51;;;;;;;5.50;2.00;;;13.70;89.80;;;;;;10563386;28;20228;-80
2022/09/16 15:37:32;;;;;;;6.47;2.00;;;13.90;1.00;;;;;;10563551;28;20247;-83
2022/09/16 15:43:26;;;;;;;5.70;2.70;;;14.00;41.80;;;;;;10571197;28;20216;-80
2022/09/16 15:49:00;;;;;;;4.13;1.43;;;13.90;1.00;;;;;;10580869;28;20200;-86
2022/09/16 15:54:26;;;;;;;1.83;1.07;;;13.90;1.00;;;;;;10551606;28;20254;-86
2022/09/16 16:00:10;;;;;;;6.83;1.83;;;13.80;1.00;;;;;;10548810;28;20204;-81
2022/09/16 16:05:38;;;;;;;6.27;1.77;;;13.90;99.90;;;;;;10526952;28;20221;-82
2022/09/16 16:11:17;;;;;;;6.20;2.07;;;13.90;99.90;;;;;;10550635;28;20232;-81
2022/09/16 16:16:39;;;;;;;3.67;2.03;;;14.10;1.00;;;;;;10550676;28;20443;-81
2022/09/16 16:22:10;;;;;;;5.73;1.67;;;14.20;1.00;;;;;;10539919;28;20518;-81
2022/09/16 16:27:33;;;;;;;7.30;2.10;;;14.20;99.90;;;;;;10530279;28;20558;-86
2022/09/16 16:32:54;;;;;;;5.87;2.60;;;14.10;99.90;;;;;;10522793;28;20236;-81
2022/09/16 16:38:15;;;;;;;9.03;3.27;;;14.10;55.10;;;;;;10560863;28;20507;-82
2022/09/16 16:43:37;;;;;;;10.67;2.67;;;13.90;99.90;;;;;;10549960;28;20244;-82
2022/09/16 16:48:58;;;;;;;14.77;5.40;;;13.80;99.90;;;;;;10564662;28;20295;-82
2022/09/16 16:54:20;;;;;;;10.77;4.60;;;13.70;1.00;;;;;;10563083;28;20200;-81
2022/09/16 16:59:41;;;;;;;8.57;2.73;;;13.50;99.90;;;;;;10563236;28;20200;-82
2022/09/16 17:05:04;;;;;;;9.03;4.10;;;13.40;1.00;;;;;;10551411;28;20227;-80
2022/09/16 17:10:25;;;;;;;7.33;2.50;;;13.40;35.90;;;;;;10548758;28;20187;-82
2022/09/16 17:15:47;;;;;;;7.50;2.77;;;13.30;99.90;;;;;;10548232;28;20274;-81
2022/09/16 17:21:17;;;;;;;9.50;4.33;;;13.30;1.00;;;;;;10548893;28;20231;-86
2022/09/16 17:26:39;;;;;;;8.13;2.57;;;13.30;1.00;;;;;;10563760;28;20224;-81
2022/09/16 17:32:01;;;;;;;9.20;2.83;;;13.30;99.90;;;;;;10548253;28;20266;-82
2022/09/16 17:37:23;;;;;;;13.80;5.90;;;13.20;99.90;;;;;;10561185;28;20196;-83
2022/09/16 17:42:49;;;;;;;5.20;2.60;;;13.10;99.90;;;;;;10561954;28;20284;-82
2022/09/16 17:48:12;;;;;;;5.40;1.80;;;13.20;99.90;;;;;;10547300;28;20223;-81
2022/09/16 17:53:34;;;;;;;8.63;2.50;;;13.10;99.90;;;;;;10547287;28;20195;-82
2022/09/16 17:58:55;;;;;;;6.57;2.47;;;13.10;99.90;;;;;;10546911;28;20297;-82
2022/09/16 18:04:16;;;;;;;7.13;3.07;;;13.00;1.00;;;;;;10546927;28;20253;-83
2022/09/16 18:09:38;;;;;;;7.00;2.80;;;13.00;1.00;;;;;;10546633;28;20191;-81
2022/09/16 18:15:00;;;;;;;6.80;3.30;;;12.90;1.00;;;;;;10546583;28;20220;-81
2022/09/16 18:20:22;;;;;;;4.13;1.80;;;12.90;1.00;;;;;;10546032;28;20194;-80
2022/09/16 18:25:44;;;;;;;3.90;1.40;;;12.90;1.00;;;;;;10532217;28;20224;-82
2022/09/16 18:31:13;;;;;;;3.77;1.57;;;12.90;1.00;;;;;;10545807;28;20235;-80
2022/09/16 18:36:36;;;;;;;5.83;1.67;;;12.80;1.00;;;;;;10561242;28;20191;-80
2022/09/16 18:41:57;;;;;;;5.93;2.17;;;12.60;99.90;;;;;;10546073;28;20217;-80
2022/09/16 18:47:19;;;;;;;5.20;1.63;;;12.40;99.90;;;;;;10560019;28;20192;-80
2022/09/16 18:52:41;;;;;;;2.17;1.00;;;12.40;1.00;;;;;;10545806;28;20206;-82
2022/09/16 18:58:02;;;;;;;9.27;2.40;;;12.30;1.00;;;;;;10559705;28;20202;-81
2022/09/16 19:03:23;;;;;;;5.60;1.97;;;12.30;1.00;;;;;;10532319;28;20264;-81
2022/09/16 19:08:45;;;;;;;3.17;1.40;;;12.30;1.00;;;;;;10531017;28;20211;-83
2022/09/16 19:14:08;;;;;;;10.57;3.83;;;12.30;1.00;;;;;;10559374;28;20202;-81
2022/09/16 19:19:30;;;;;;;3.13;1.57;;;12.30;1.00;;;;;;10563210;28;20289;-82
2022/09/16 19:24:53;;;;;;;5.87;2.50;;;12.20;1.00;;;;;;10537921;28;20220;-80
2022/09/16 19:30:15;;;;;;;4.87;2.00;;;12.30;1.00;;;;;;10552514;28;20250;-80
2022/09/16 19:35:37;;;;;;;8.07;2.70;;;12.20;99.90;;;;;;10553191;28;20193;-86
2022/09/16 19:41:02;;;;;;;7.13;1.80;;;12.20;99.90;;;;;;10510732;28;20512;-80
2022/09/16 19:46:24;;;;;;;10.90;2.87;;;12.10;99.90;;;;;;10510307;28;20233;-81
2022/09/16 19:51:47;;;;;;;4.60;1.50;;;12.10;99.90;;;;;;10524816;28;20443;-80
2022/09/16 19:57:08;;;;;;;7.43;2.43;;;12.00;99.90;;;;;;10509462;28;20216;-83
2022/09/16 20:02:29;;;;;;;8.17;1.80;;;12.10;99.90;;;;;;10509148;28;20202;-80
2022/09/16 20:07:51;;;;;;;4.87;1.80;;;12.10;99.90;;;;;;10537005;28;20191;-80
2022/09/16 20:13:13;;;;;;;7.10;2.50;;;12.10;99.90;;;;;;10579095;28;20176;-81
2022/09/16 20:18:35;;;;;;;9.63;3.80;;;12.00;99.90;;;;;;10546614;28;20370;-81
2022/09/16 20:23:56;;;;;;;8.20;3.43;;;12.00;99.90;;;;;;10544846;28;20231;-82
2022/09/16 20:29:19;;;;;;;10.63;4.13;;;12.00;99.90;;;;;;10550309;28;20254;-80
2022/09/16 20:34:40;;;;;;;6.00;3.03;;;12.00;99.90;;;;;;10548670;28;20202;-81
2022/09/16 20:40:02;;;;;;;4.37;2.00;;;12.00;99.90;;;;;;10550327;28;20203;-81
2022/09/16 20:45:24;;;;;;;4.80;1.83;;;12.00;99.90;;;;;;10565221;28;20247;-80
2022/09/16 20:50:45;;;;;;;3.13;1.90;;;12.10;99.90;;;;;;10549938;28;20276;-81
2022/09/16 20:56:16;;;;;;;4.40;1.53;;;12.10;99.90;;;;;;10549037;28;20229;-80
2022/09/16 21:01:39;;;;;;;6.50;1.63;;;12.10;99.90;;;;;;10531763;28;20218;-80
2022/09/16 21:07:00;;;;;;;5.47;1.40;;;12.20;99.90;;;;;;10547084;28;20221;-80
2022/09/16 21:12:22;;;;;;;5.47;2.30;;;12.20;99.90;;;;;;10548891;28;20217;-81
2022/09/16 21:17:43;;;;;;;6.30;1.67;;;12.20;99.90;;;;;;10562749;28;20272;-81
2022/09/16 21:23:05;;;;;;;6.00;1.20;;;12.20;99.90;;;;;;10551276;28;20236;-80
2022/09/16 21:28:26;;;;;;;6.20;1.73;;;12.10;99.90;;;;;;10519895;28;20200;-81
2022/09/16 21:33:53;;;;;;;9.20;2.37;;;12.10;99.90;;;;;;10545521;28;20230;-80
2022/09/16 21:39:16;;;;;;;6.33;2.30;;;12.20;99.90;;;;;;10533273;28;20206;-81
2022/09/16 21:44:37;;;;;;;4.70;1.97;;;12.10;99.90;;;;;;10563801;28;20450;-81
2022/09/16 21:49:59;;;;;;;3.97;1.93;;;12.10;99.90;;;;;;10548533;28;20186;-82
2022/09/16 21:55:21;;;;;;;5.63;1.67;;;12.10;99.90;;;;;;10550327;28;20210;-81
2022/09/16 22:00:42;;;;;;;5.87;1.43;;;12.10;99.90;;;;;;10546434;28;20196;-82
2022/09/16 22:06:05;;;;;;;3.97;1.40;;;12.10;99.90;;;;;;10560515;28;20299;-83
2022/09/16 22:11:29;;;;;;;6.03;1.57;;;12.10;99.90;;;;;;10560788;28;20231;-82
2022/09/16 22:16:50;;;;;;;4.17;1.60;;;12.10;99.90;;;;;;10546051;28;20233;-85
2022/09/16 22:22:12;;;;;;;3.43;1.37;;;12.10;99.90;;;;;;10547020;28;20202;-83
2022/09/16 22:27:33;;;;;;;7.57;1.10;;;12.10;99.90;;;;;;10545913;28;20207;-86
2022/09/16 22:32:54;;;;;;;2.40;0.97;;;12.10;99.90;;;;;;10546218;28;20238;-81
2022/09/16 22:38:16;;;;;;;3.93;1.27;;;12.00;99.90;;;;;;10563412;28;20508;-80
2022/09/16 22:43:40;;;;;;;6.40;1.40;;;12.00;99.90;;;;;;10546336;28;20220;-83
2022/09/16 22:49:01;;;;;;;7.27;1.53;;;12.10;99.90;;;;;;10559886;28;20213;-81
2022/09/16 22:54:23;;;;;;;2.23;1.00;;;12.00;99.90;;;;;;10547224;28;20209;-82
2022/09/16 22:59:44;;;;;;;4.03;1.00;;;12.00;99.90;;;;;;10567700;28;20274;-82
2022/09/16 23:05:06;;;;;;;5.03;1.00;;;12.00;1.00;;;;;;10525329;28;20220;-81
2022/09/16 23:10:27;;;;;;;3.40;1.13;;;11.90;1.00;;;;;;10510836;28;20213;-82
2022/09/16 23:15:52;;;;;;;5.33;1.77;;;11.80;1.00;;;;;;10524916;28;20394;-86
2022/09/16 23:21:16;;;;;;;5.00;2.00;;;11.80;1.00;;;;;;10545437;28;20272;-81
2022/09/16 23:26:38;;;;;;;6.40;1.50;;;11.70;1.00;;;;;;10566858;28;20228;-81
2022/09/16 23:32:02;;;;;;;3.07;1.47;;;11.60;1.00;;;;;;10565864;28;20249;-82
2022/09/16 23:37:23;;;;;;;3.33;1.60;;;11.60;1.00;;;;;;10552174;28;20488;-81
2022/09/16 23:42:44;;;;;;;5.30;1.40;;;11.60;1.00;;;;;;10552377;28;20194;-80
2022/09/16 23:48:06;;;;;;;5.33;1.30;;;11.50;1.00;;;;;;10565631;28;20380;-80
2022/09/16 23:53:28;;;;;;;4.97;1.03;;;11.50;1.00;;;;;;10551993;28;20233;-79
2022/09/16 23:58:50;;;;;;;3.70;1.43;;;11.50;1.00;;;;;;10565622;28;20419;-79
